Flugplatz Schmallenberg-Rennefeld (EDKR)

Hier findest Du alle Informationen zum Flugplatz Schmallenberg-Rennefeld (EDKR).

Informationen für Piloten zum Flugplatz Schmallenberg-Rennefeld

Hier findest Du alle relevanten Informationen, die Du als Pilot benötigst, um Schmallenberg-Rennefeld anzufliegen.

Flugplatz: Schmallenberg-Rennefeld ICAO-Code: EDKR
Frequenz Turm: 127.090 Mhz GAFOR Gebiet: 36
Frequenz Ground: 127.090 Mhz Mogas: nein
Platzrunde: N 2400 ft Landegebühr: -
Platzhöhe: 1.530 ft Sunrise: 03:16 Uhr UTC
Pisten: 09/27 - 620 m x 30 m, GRAS Sunset: 19:33 Uhr UTC

Mitglieder, die in Schmallenberg-Rennefeld fliegen

Flugwetter am Flugplatz Schmallenberg-Rennefeld

Die METAR Information stammen aus EDGS (51.92 km entfernt).

METAR Code:
2024/05/26 16:20
EDGS 261620Z 17011G29KT 130V210 9999 -SHRA SCT042TCU 17/09 Q1016 RETSRA

Flugschulen am Flugplatz Schmallenberg-Rennefeld

Am Flugplatz Schmallenberg-Rennefeld gibt es leider keine Flugschule.

Benachbarte Flugplätze und Flugschulen

Es gibt 21 weitere Flugplätze in einem Umkreis von 50 km um den Flugplatz Schmallenberg-Rennefeld.

Jetzt anmelden

Passwort vergessen

Umfrage Archiv

Wie häufig haltet Ihr die Halbkreisflugregel ein?

Eher häufig!
35.5 %
Immer!
30.9 %
Hin und wieder!
16.8 %
Nie!
9.4 %
Eher selten!
7.4 %
Stimmen: 256 | Diskussion
Anzeige: Roland Aircraft
Statistik Alle Mitglieder

Aktuell sind 5 Besucher online, davon 1 Mitglied und 4 Gäste.


Mitglieder online:
aircamper 

Anzeige: EasyVFR